sensor_id;sensor_type;location;lat;lon;timestamp;pressure;altitude;pressure_sealevel;temperature;humidity
59608;BME280;45426;44.726;10.390;2023-05-17T00:01:03;99736.75;;;15.65;100.00
59608;BME280;45426;44.726;10.390;2023-05-17T00:03:28;99728.38;;;15.36;100.00
59608;BME280;45426;44.726;10.390;2023-05-17T00:05:54;99741.94;;;15.18;100.00
59608;BME280;45426;44.726;10.390;2023-05-17T00:08:20;99747.44;;;14.77;100.00
59608;BME280;45426;44.726;10.390;2023-05-17T00:10:45;99744.66;;;14.70;100.00
59608;BME280;45426;44.726;10.390;2023-05-17T00:13:11;99753.00;;;14.84;100.00
59608;BME280;45426;44.726;10.390;2023-05-17T00:15:36;99745.31;;;15.01;100.00
59608;BME280;45426;44.726;10.390;2023-05-17T00:18:02;99743.13;;;15.21;100.00
59608;BME280;45426;44.726;10.390;2023-05-17T00:20:30;99735.72;;;15.25;100.00
59608;BME280;45426;44.726;10.390;2023-05-17T00:22:56;99735.84;;;15.43;100.00
59608;BME280;45426;44.726;10.390;2023-05-17T00:25:22;99738.59;;;15.46;100.00
59608;BME280;45426;44.726;10.390;2023-05-17T00:27:47;99733.69;;;15.14;100.00
59608;BME280;45426;44.726;10.390;2023-05-17T00:30:13;99736.28;;;15.52;100.00
59608;BME280;45426;44.726;10.390;2023-05-17T00:32:38;99741.19;;;15.25;100.00
59608;BME280;45426;44.726;10.390;2023-05-17T00:35:04;99738.66;;;15.02;100.00
59608;BME280;45426;44.726;10.390;2023-05-17T00:37:30;99741.53;;;15.16;100.00
59608;BME280;45426;44.726;10.390;2023-05-17T00:39:55;99736.59;;;14.84;100.00
59608;BME280;45426;44.726;10.390;2023-05-17T00:42:21;99741.66;;;14.45;100.00
59608;BME280;45426;44.726;10.390;2023-05-17T00:44:46;99736.31;;;14.55;100.00
59608;BME280;45426;44.726;10.390;2023-05-17T00:47:12;99733.16;;;14.53;100.00
59608;BME280;45426;44.726;10.390;2023-05-17T00:49:40;99731.16;;;14.88;100.00
59608;BME280;45426;44.726;10.390;2023-05-17T00:52:05;99722.88;;;15.32;100.00
59608;BME280;45426;44.726;10.390;2023-05-17T00:54:33;99722.63;;;15.56;100.00
59608;BME280;45426;44.726;10.390;2023-05-17T00:56:59;99726.16;;;15.60;100.00
59608;BME280;45426;44.726;10.390;2023-05-17T00:59:25;99731.69;;;15.70;100.00
59608;BME280;45426;44.726;10.390;2023-05-17T01:01:51;99730.88;;;15.66;100.00
59608;BME280;45426;44.726;10.390;2023-05-17T01:04:17;99737.88;;;15.53;100.00
59608;BME280;45426;44.726;10.390;2023-05-17T01:06:43;99735.78;;;14.80;100.00
59608;BME280;45426;44.726;10.390;2023-05-17T01:09:09;99736.63;;;15.40;100.00
59608;BME280;45426;44.726;10.390;2023-05-17T01:11:46;99722.28;;;15.64;100.00
59608;BME280;45426;44.726;10.390;2023-05-17T01:14:32;99713.56;;;15.48;100.00
59608;BME280;45426;44.726;10.390;2023-05-17T01:17:23;99726.72;;;15.21;100.00
59608;BME280;45426;44.726;10.390;2023-05-17T01:20:08;99724.88;;;15.43;100.00
59608;BME280;45426;44.726;10.390;2023-05-17T01:22:42;99725.16;;;15.23;100.00
59608;BME280;45426;44.726;10.390;2023-05-17T01:27:44;99729.19;;;14.47;100.00
59608;BME280;45426;44.726;10.390;2023-05-17T01:30:12;99736.56;;;14.43;100.00
59608;BME280;45426;44.726;10.390;2023-05-17T01:32:43;99728.03;;;14.89;100.00
59608;BME280;45426;44.726;10.390;2023-05-17T01:35:12;99721.31;;;15.35;100.00
59608;BME280;45426;44.726;10.390;2023-05-17T01:37:38;99720.66;;;15.52;100.00
59608;BME280;45426;44.726;10.390;2023-05-17T01:40:06;99723.34;;;15.45;100.00
59608;BME280;45426;44.726;10.390;2023-05-17T01:42:34;99730.44;;;15.57;100.00
59608;BME280;45426;44.726;10.390;2023-05-17T01:45:23;99723.56;;;15.22;100.00
59608;BME280;45426;44.726;10.390;2023-05-17T01:48:14;99726.66;;;15.13;100.00
59608;BME280;45426;44.726;10.390;2023-05-17T01:50:42;99733.19;;;15.02;100.00
59608;BME280;45426;44.726;10.390;2023-05-17T01:53:15;99734.94;;;15.24;100.00
59608;BME280;45426;44.726;10.390;2023-05-17T01:55:49;99732.47;;;15.71;100.00
59608;BME280;45426;44.726;10.390;2023-05-17T01:58:17;99731.03;;;15.91;100.00
59608;BME280;45426;44.726;10.390;2023-05-17T02:00:48;99735.44;;;15.41;100.00
59608;BME280;45426;44.726;10.390;2023-05-17T02:03:21;99731.69;;;15.70;100.00
59608;BME280;45426;44.726;10.390;2023-05-17T02:05:47;99729.88;;;15.26;100.00
59608;BME280;45426;44.726;10.390;2023-05-17T02:08:13;99731.34;;;15.76;100.00
59608;BME280;45426;44.726;10.390;2023-05-17T02:10:42;99731.59;;;15.49;100.00
59608;BME280;45426;44.726;10.390;2023-05-17T02:13:07;99740.91;;;14.85;100.00
59608;BME280;45426;44.726;10.390;2023-05-17T02:15:33;99743.72;;;15.00;100.00
59608;BME280;45426;44.726;10.390;2023-05-17T02:17:58;99743.22;;;15.35;100.00
59608;BME280;45426;44.726;10.390;2023-05-17T02:20:24;99737.75;;;14.87;100.00
59608;BME280;45426;44.726;10.390;2023-05-17T02:22:49;99738.91;;;14.82;100.00
59608;BME280;45426;44.726;10.390;2023-05-17T02:25:15;99740.75;;;15.16;100.00
59608;BME280;45426;44.726;10.390;2023-05-17T02:27:40;99744.81;;;15.40;100.00
59608;BME280;45426;44.726;10.390;2023-05-17T02:30:06;99752.19;;;14.80;100.00
59608;BME280;45426;44.726;10.390;2023-05-17T02:32:32;99752.19;;;15.28;100.00
59608;BME280;45426;44.726;10.390;2023-05-17T02:35:00;99751.84;;;14.85;100.00
59608;BME280;45426;44.726;10.390;2023-05-17T02:37:26;99760.56;;;14.61;100.00
59608;BME280;45426;44.726;10.390;2023-05-17T02:39:51;99758.69;;;15.09;100.00
59608;BME280;45426;44.726;10.390;2023-05-17T02:42:17;99757.56;;;14.73;100.00
59608;BME280;45426;44.726;10.390;2023-05-17T02:44:42;99762.72;;;14.78;100.00
59608;BME280;45426;44.726;10.390;2023-05-17T02:47:08;99764.66;;;14.78;100.00
59608;BME280;45426;44.726;10.390;2023-05-17T02:49:34;99772.97;;;14.92;100.00
59608;BME280;45426;44.726;10.390;2023-05-17T02:51:59;99777.91;;;14.08;100.00
59608;BME280;45426;44.726;10.390;2023-05-17T02:54:25;99778.16;;;14.26;100.00
59608;BME280;45426;44.726;10.390;2023-05-17T02:56:50;99776.16;;;14.23;100.00
59608;BME280;45426;44.726;10.390;2023-05-17T02:59:16;99779.44;;;14.73;100.00
59608;BME280;45426;44.726;10.390;2023-05-17T03:01:42;99790.25;;;15.03;100.00
59608;BME280;45426;44.726;10.390;2023-05-17T03:04:10;99792.44;;;14.83;100.00
59608;BME280;45426;44.726;10.390;2023-05-17T03:06:36;99787.69;;;15.21;100.00
59608;BME280;45426;44.726;10.390;2023-05-17T03:09:02;99793.00;;;15.51;100.00
59608;BME280;45426;44.726;10.390;2023-05-17T03:11:27;99805.69;;;15.26;100.00
59608;BME280;45426;44.726;10.390;2023-05-17T03:13:53;99803.19;;;14.65;100.00
59608;BME280;45426;44.726;10.390;2023-05-17T03:16:18;99805.19;;;14.04;100.00
59608;BME280;45426;44.726;10.390;2023-05-17T03:18:44;99811.31;;;14.95;100.00
59608;BME280;45426;44.726;10.390;2023-05-17T03:21:10;99809.28;;;15.30;100.00
59608;BME280;45426;44.726;10.390;2023-05-17T03:23:35;99808.97;;;14.98;100.00
59608;BME280;45426;44.726;10.390;2023-05-17T03:26:01;99809.84;;;15.09;100.00
59608;BME280;45426;44.726;10.390;2023-05-17T03:28:26;99816.81;;;14.62;100.00
59608;BME280;45426;44.726;10.390;2023-05-17T03:30:52;99815.44;;;14.79;100.00
59608;BME280;45426;44.726;10.390;2023-05-17T03:33:20;99825.22;;;15.21;100.00
59608;BME280;45426;44.726;10.390;2023-05-17T03:35:46;99825.34;;;15.39;100.00
59608;BME280;45426;44.726;10.390;2023-05-17T03:38:12;99827.63;;;15.29;100.00
59608;BME280;45426;44.726;10.390;2023-05-17T03:40:37;99833.69;;;15.08;100.00
59608;BME280;45426;44.726;10.390;2023-05-17T03:43:05;99832.13;;;15.56;100.00
59608;BME280;45426;44.726;10.390;2023-05-17T03:45:31;99838.97;;;15.31;100.00
59608;BME280;45426;44.726;10.390;2023-05-17T03:47:56;99840.31;;;15.52;100.00
59608;BME280;45426;44.726;10.390;2023-05-17T03:50:22;99845.00;;;15.51;100.00
59608;BME280;45426;44.726;10.390;2023-05-17T03:52:47;99851.66;;;15.54;100.00
59608;BME280;45426;44.726;10.390;2023-05-17T03:55:13;99855.25;;;15.13;100.00
59608;BME280;45426;44.726;10.390;2023-05-17T03:57:38;99847.88;;;15.21;100.00
59608;BME280;45426;44.726;10.390;2023-05-17T04:00:04;99869.16;;;14.98;100.00
59608;BME280;45426;44.726;10.390;2023-05-17T04:02:45;99867.16;;;14.91;100.00
59608;BME280;45426;44.726;10.390;2023-05-17T04:05:11;99879.22;;;14.90;100.00
59608;BME280;45426;44.726;10.390;2023-05-17T04:07:37;99880.91;;;15.02;100.00
59608;BME280;45426;44.726;10.390;2023-05-17T04:10:03;99881.16;;;14.86;100.00
59608;BME280;45426;44.726;10.390;2023-05-17T04:12:29;99890.78;;;15.55;100.00
59608;BME280;45426;44.726;10.390;2023-05-17T04:14:55;99873.63;;;15.61;100.00
59608;BME280;45426;44.726;10.390;2023-05-17T04:17:20;99896.41;;;15.28;100.00
59608;BME280;45426;44.726;10.390;2023-05-17T04:19:46;99897.53;;;15.68;100.00
59608;BME280;45426;44.726;10.390;2023-05-17T04:22:11;99904.56;;;15.69;100.00
59608;BME280;45426;44.726;10.390;2023-05-17T04:24:46;99912.41;;;15.70;100.00
59608;BME280;45426;44.726;10.390;2023-05-17T04:27:18;99909.72;;;15.29;100.00
59608;BME280;45426;44.726;10.390;2023-05-17T04:29:44;99911.31;;;15.30;100.00
59608;BME280;45426;44.726;10.390;2023-05-17T04:32:09;99919.50;;;15.30;100.00
59608;BME280;45426;44.726;10.390;2023-05-17T04:34:35;99924.50;;;15.21;100.00
59608;BME280;45426;44.726;10.390;2023-05-17T04:37:00;99917.56;;;15.76;100.00
59608;BME280;45426;44.726;10.390;2023-05-17T04:39:26;99913.31;;;15.82;100.00
59608;BME280;45426;44.726;10.390;2023-05-17T04:41:53;99918.41;;;15.83;100.00
59608;BME280;45426;44.726;10.390;2023-05-17T04:44:19;99923.50;;;15.40;100.00
59608;BME280;45426;44.726;10.390;2023-05-17T04:46:44;99915.69;;;15.01;100.00
59608;BME280;45426;44.726;10.390;2023-05-17T04:49:10;99926.22;;;15.37;100.00
59608;BME280;45426;44.726;10.390;2023-05-17T04:51:35;99919.06;;;15.25;100.00
59608;BME280;45426;44.726;10.390;2023-05-17T04:54:01;99930.31;;;15.57;100.00
59608;BME280;45426;44.726;10.390;2023-05-17T04:56:31;99918.63;;;15.19;100.00
59608;BME280;45426;44.726;10.390;2023-05-17T04:58:57;99928.28;;;15.47;100.00
59608;BME280;45426;44.726;10.390;2023-05-17T05:01:23;99914.34;;;15.66;100.00
59608;BME280;45426;44.726;10.390;2023-05-17T05:03:48;99921.81;;;15.69;100.00
59608;BME280;45426;44.726;10.390;2023-05-17T05:06:14;99931.78;;;15.47;100.00
59608;BME280;45426;44.726;10.390;2023-05-17T05:08:40;99929.63;;;15.71;100.00
59608;BME280;45426;44.726;10.390;2023-05-17T05:11:09;99941.66;;;15.59;100.00
59608;BME280;45426;44.726;10.390;2023-05-17T05:13:34;99954.56;;;15.59;100.00
59608;BME280;45426;44.726;10.390;2023-05-17T05:16:02;99957.13;;;15.41;100.00
59608;BME280;45426;44.726;10.390;2023-05-17T05:18:28;99944.38;;;15.56;100.00
59608;BME280;45426;44.726;10.390;2023-05-17T05:20:55;99954.53;;;15.55;100.00
59608;BME280;45426;44.726;10.390;2023-05-17T05:23:21;99949.72;;;15.45;100.00
59608;BME280;45426;44.726;10.390;2023-05-17T05:25:46;99964.69;;;15.13;100.00
59608;BME280;45426;44.726;10.390;2023-05-17T05:28:12;99964.22;;;15.45;100.00
59608;BME280;45426;44.726;10.390;2023-05-17T05:30:38;99963.19;;;15.61;100.00
59608;BME280;45426;44.726;10.390;2023-05-17T05:33:04;99970.94;;;15.51;100.00
59608;BME280;45426;44.726;10.390;2023-05-17T05:35:32;99975.75;;;15.65;100.00
59608;BME280;45426;44.726;10.390;2023-05-17T05:37:57;99971.78;;;15.59;100.00
59608;BME280;45426;44.726;10.390;2023-05-17T05:40:24;99972.13;;;15.54;100.00
59608;BME280;45426;44.726;10.390;2023-05-17T05:42:49;99971.00;;;15.59;100.00
59608;BME280;45426;44.726;10.390;2023-05-17T05:45:17;99975.69;;;15.58;100.00
59608;BME280;45426;44.726;10.390;2023-05-17T05:47:43;99982.84;;;15.70;100.00
59608;BME280;45426;44.726;10.390;2023-05-17T05:50:09;99986.72;;;15.69;100.00
59608;BME280;45426;44.726;10.390;2023-05-17T05:52:35;99986.88;;;15.83;100.00
59608;BME280;45426;44.726;10.390;2023-05-17T05:55:01;99994.97;;;15.72;100.00
59608;BME280;45426;44.726;10.390;2023-05-17T05:57:26;100014.06;;;15.65;100.00
59608;BME280;45426;44.726;10.390;2023-05-17T05:59:52;100026.75;;;15.77;100.00
59608;BME280;45426;44.726;10.390;2023-05-17T06:02:17;100033.22;;;15.24;100.00
59608;BME280;45426;44.726;10.390;2023-05-17T06:04:46;100033.28;;;15.69;100.00
59608;BME280;45426;44.726;10.390;2023-05-17T06:07:12;100046.81;;;15.51;100.00
59608;BME280;45426;44.726;10.390;2023-05-17T06:09:38;100057.91;;;15.31;100.00
59608;BME280;45426;44.726;10.390;2023-05-17T06:12:03;100053.75;;;15.45;100.00
59608;BME280;45426;44.726;10.390;2023-05-17T06:14:29;100060.44;;;15.47;100.00
59608;BME280;45426;44.726;10.390;2023-05-17T06:16:55;100054.06;;;15.36;100.00
59608;BME280;45426;44.726;10.390;2023-05-17T06:19:20;100052.31;;;15.55;100.00
59608;BME280;45426;44.726;10.390;2023-05-17T06:21:48;100039.47;;;15.25;100.00
59608;BME280;45426;44.726;10.390;2023-05-17T06:24:14;100050.94;;;15.71;100.00
59608;BME280;45426;44.726;10.390;2023-05-17T06:26:43;100049.53;;;15.51;100.00
59608;BME280;45426;44.726;10.390;2023-05-17T06:29:16;100049.09;;;15.83;100.00
59608;BME280;45426;44.726;10.390;2023-05-17T06:31:42;100062.09;;;15.93;100.00
59608;BME280;45426;44.726;10.390;2023-05-17T06:34:07;100056.25;;;15.95;100.00
59608;BME280;45426;44.726;10.390;2023-05-17T06:36:36;100064.78;;;15.86;100.00
59608;BME280;45426;44.726;10.390;2023-05-17T06:39:02;100066.72;;;15.85;100.00
59608;BME280;45426;44.726;10.390;2023-05-17T06:41:27;100069.47;;;15.85;100.00
59608;BME280;45426;44.726;10.390;2023-05-17T06:43:53;100069.31;;;16.08;100.00
59608;BME280;45426;44.726;10.390;2023-05-17T06:46:21;100067.75;;;16.11;100.00
59608;BME280;45426;44.726;10.390;2023-05-17T06:48:46;100066.94;;;16.07;100.00
59608;BME280;45426;44.726;10.390;2023-05-17T06:51:11;100065.38;;;16.09;100.00
59608;BME280;45426;44.726;10.390;2023-05-17T06:53:37;100067.78;;;16.15;100.00
59608;BME280;45426;44.726;10.390;2023-05-17T06:56:03;100073.69;;;16.17;100.00
59608;BME280;45426;44.726;10.390;2023-05-17T06:58:28;100078.41;;;16.23;100.00
59608;BME280;45426;44.726;10.390;2023-05-17T07:00:54;100073.44;;;16.36;100.00
59608;BME280;45426;44.726;10.390;2023-05-17T07:03:19;100078.13;;;16.36;100.00
59608;BME280;45426;44.726;10.390;2023-05-17T07:05:44;100086.63;;;16.20;100.00
59608;BME280;45426;44.726;10.390;2023-05-17T07:08:10;100091.50;;;16.41;100.00
59608;BME280;45426;44.726;10.390;2023-05-17T07:10:39;100082.50;;;16.44;100.00
59608;BME280;45426;44.726;10.390;2023-05-17T07:13:07;100091.19;;;16.53;100.00
59608;BME280;45426;44.726;10.390;2023-05-17T07:15:32;100086.72;;;16.34;100.00
59608;BME280;45426;44.726;10.390;2023-05-17T07:17:57;100088.53;;;16.64;100.00
59608;BME280;45426;44.726;10.390;2023-05-17T07:20:23;100099.84;;;16.59;100.00
59608;BME280;45426;44.726;10.390;2023-05-17T07:22:48;100090.84;;;16.62;100.00
59608;BME280;45426;44.726;10.390;2023-05-17T07:25:14;100102.63;;;16.66;100.00
59608;BME280;45426;44.726;10.390;2023-05-17T07:27:40;100101.06;;;16.65;100.00
59608;BME280;45426;44.726;10.390;2023-05-17T07:30:06;100099.06;;;16.58;100.00
59608;BME280;45426;44.726;10.390;2023-05-17T07:32:34;100111.03;;;16.36;100.00
59608;BME280;45426;44.726;10.390;2023-05-17T07:34:59;100110.25;;;15.94;100.00
59608;BME280;45426;44.726;10.390;2023-05-17T07:37:26;100121.31;;;16.01;100.00
59608;BME280;45426;44.726;10.390;2023-05-17T07:39:51;100130.22;;;16.36;100.00
59608;BME280;45426;44.726;10.390;2023-05-17T07:42:17;100144.03;;;16.05;100.00
59608;BME280;45426;44.726;10.390;2023-05-17T07:44:43;100135.38;;;16.41;100.00
59608;BME280;45426;44.726;10.390;2023-05-17T07:47:10;100132.75;;;16.10;100.00
59608;BME280;45426;44.726;10.390;2023-05-17T07:49:36;100129.72;;;16.23;100.00
59608;BME280;45426;44.726;10.390;2023-05-17T07:52:01;100130.00;;;16.59;100.00
59608;BME280;45426;44.726;10.390;2023-05-17T07:54:28;100139.75;;;16.53;100.00
59608;BME280;45426;44.726;10.390;2023-05-17T07:56:53;100137.34;;;16.47;100.00
59608;BME280;45426;44.726;10.390;2023-05-17T07:59:22;100131.03;;;16.40;100.00
59608;BME280;45426;44.726;10.390;2023-05-17T08:01:48;100134.41;;;16.22;100.00
59608;BME280;45426;44.726;10.390;2023-05-17T08:04:14;100134.44;;;16.26;100.00
59608;BME280;45426;44.726;10.390;2023-05-17T08:06:41;100138.78;;;15.89;100.00
59608;BME280;45426;44.726;10.390;2023-05-17T08:09:07;100146.50;;;15.80;100.00
59608;BME280;45426;44.726;10.390;2023-05-17T08:11:33;100142.34;;;16.31;100.00
59608;BME280;45426;44.726;10.390;2023-05-17T08:14:02;100142.38;;;16.38;100.00
59608;BME280;45426;44.726;10.390;2023-05-17T08:16:27;100140.00;;;16.33;100.00
59608;BME280;45426;44.726;10.390;2023-05-17T08:18:56;100143.78;;;15.50;100.00
59608;BME280;45426;44.726;10.390;2023-05-17T08:21:21;100138.78;;;15.59;100.00
59608;BME280;45426;44.726;10.390;2023-05-17T08:23:47;100154.91;;;15.64;100.00
59608;BME280;45426;44.726;10.390;2023-05-17T08:26:13;100151.84;;;15.69;100.00
59608;BME280;45426;44.726;10.390;2023-05-17T08:28:39;100144.25;;;15.89;100.00
59608;BME280;45426;44.726;10.390;2023-05-17T08:31:07;100142.56;;;16.15;100.00
59608;BME280;45426;44.726;10.390;2023-05-17T08:33:38;100153.03;;;16.06;100.00
59608;BME280;45426;44.726;10.390;2023-05-17T08:36:04;100162.41;;;16.01;100.00
59608;BME280;45426;44.726;10.390;2023-05-17T08:38:32;100167.72;;;16.24;100.00
59608;BME280;45426;44.726;10.390;2023-05-17T08:40:58;100167.66;;;16.62;100.00
59608;BME280;45426;44.726;10.390;2023-05-17T08:43:24;100166.94;;;16.24;100.00
59608;BME280;45426;44.726;10.390;2023-05-17T08:45:51;100166.84;;;16.58;100.00
59608;BME280;45426;44.726;10.390;2023-05-17T08:48:17;100176.81;;;16.36;100.00
59608;BME280;45426;44.726;10.390;2023-05-17T08:50:46;100177.81;;;16.58;100.00
59608;BME280;45426;44.726;10.390;2023-05-17T08:53:12;100184.94;;;16.69;100.00
59608;BME280;45426;44.726;10.390;2023-05-17T08:55:40;100188.09;;;16.27;100.00
59608;BME280;45426;44.726;10.390;2023-05-17T08:58:14;100192.63;;;16.08;100.00
59608;BME280;45426;44.726;10.390;2023-05-17T09:00:41;100183.66;;;16.56;100.00
59608;BME280;45426;44.726;10.390;2023-05-17T09:03:08;100185.44;;;15.97;100.00
59608;BME280;45426;44.726;10.390;2023-05-17T09:05:39;100191.72;;;16.01;100.00
59608;BME280;45426;44.726;10.390;2023-05-17T09:08:05;100183.28;;;16.58;100.00
59608;BME280;45426;44.726;10.390;2023-05-17T09:10:31;100180.44;;;16.47;100.00
59608;BME280;45426;44.726;10.390;2023-05-17T09:12:59;100184.47;;;16.60;100.00
59608;BME280;45426;44.726;10.390;2023-05-17T09:15:24;100193.31;;;16.39;100.00
59608;BME280;45426;44.726;10.390;2023-05-17T09:17:52;100185.97;;;16.95;100.00
59608;BME280;45426;44.726;10.390;2023-05-17T09:20:24;100192.63;;;16.98;100.00
59608;BME280;45426;44.726;10.390;2023-05-17T09:22:50;100191.44;;;16.95;100.00
59608;BME280;45426;44.726;10.390;2023-05-17T09:25:23;100200.06;;;16.11;100.00
59608;BME280;45426;44.726;10.390;2023-05-17T09:27:52;100199.59;;;16.43;100.00
59608;BME280;45426;44.726;10.390;2023-05-17T09:30:17;100180.50;;;16.99;100.00
59608;BME280;45426;44.726;10.390;2023-05-17T09:32:43;100174.13;;;16.84;100.00
59608;BME280;45426;44.726;10.390;2023-05-17T09:35:10;100185.94;;;16.92;100.00
59608;BME280;45426;44.726;10.390;2023-05-17T09:37:37;100190.94;;;16.38;100.00
59608;BME280;45426;44.726;10.390;2023-05-17T09:40:03;100203.16;;;16.47;100.00
59608;BME280;45426;44.726;10.390;2023-05-17T09:42:34;100205.94;;;16.51;100.00
59608;BME280;45426;44.726;10.390;2023-05-17T09:45:04;100203.53;;;16.83;100.00
59608;BME280;45426;44.726;10.390;2023-05-17T09:47:30;100206.81;;;17.07;100.00
59608;BME280;45426;44.726;10.390;2023-05-17T09:49:59;100208.34;;;17.01;100.00
59608;BME280;45426;44.726;10.390;2023-05-17T09:52:27;100215.06;;;17.11;100.00
59608;BME280;45426;44.726;10.390;2023-05-17T09:54:58;100209.88;;;17.57;100.00
59608;BME280;45426;44.726;10.390;2023-05-17T09:57:26;100205.97;;;17.58;100.00
59608;BME280;45426;44.726;10.390;2023-05-17T09:59:55;100216.72;;;17.19;100.00
59608;BME280;45426;44.726;10.390;2023-05-17T10:02:29;100229.38;;;16.82;100.00
59608;BME280;45426;44.726;10.390;2023-05-17T10:04:57;100245.47;;;16.09;100.00
59608;BME280;45426;44.726;10.390;2023-05-17T10:07:25;100237.22;;;16.43;100.00
59608;BME280;45426;44.726;10.390;2023-05-17T10:09:52;100238.06;;;16.50;100.00
59608;BME280;45426;44.726;10.390;2023-05-17T10:12:25;100242.06;;;16.60;100.00
59608;BME280;45426;44.726;10.390;2023-05-17T10:14:52;100235.91;;;16.29;100.00
59608;BME280;45426;44.726;10.390;2023-05-17T10:17:21;100239.75;;;17.07;100.00
59608;BME280;45426;44.726;10.390;2023-05-17T10:19:48;100240.06;;;16.95;100.00
59608;BME280;45426;44.726;10.390;2023-05-17T10:22:14;100241.47;;;17.30;100.00
59608;BME280;45426;44.726;10.390;2023-05-17T10:24:42;100232.56;;;17.43;100.00
59608;BME280;45426;44.726;10.390;2023-05-17T10:27:08;100244.25;;;17.33;100.00
59608;BME280;45426;44.726;10.390;2023-05-17T10:29:37;100244.16;;;17.85;100.00
59608;BME280;45426;44.726;10.390;2023-05-17T10:32:06;100246.50;;;17.20;100.00
59608;BME280;45426;44.726;10.390;2023-05-17T10:34:34;100243.28;;;17.04;100.00
59608;BME280;45426;44.726;10.390;2023-05-17T10:37:02;100246.50;;;17.20;100.00
59608;BME280;45426;44.726;10.390;2023-05-17T10:39:28;100258.13;;;17.55;100.00
59608;BME280;45426;44.726;10.390;2023-05-17T10:41:56;100252.34;;;17.78;100.00
59608;BME280;45426;44.726;10.390;2023-05-17T10:44:22;100253.66;;;17.32;100.00
59608;BME280;45426;44.726;10.390;2023-05-17T10:46:57;100253.47;;;17.66;100.00
59608;BME280;45426;44.726;10.390;2023-05-17T10:49:31;100255.78;;;17.60;100.00
59608;BME280;45426;44.726;10.390;2023-05-17T10:52:15;100261.22;;;17.50;100.00
59608;BME280;45426;44.726;10.390;2023-05-17T10:54:42;100268.25;;;16.92;100.00
59608;BME280;45426;44.726;10.390;2023-05-17T10:57:18;100270.97;;;16.50;100.00
59608;BME280;45426;44.726;10.390;2023-05-17T11:00:00;100278.03;;;17.41;100.00
59608;BME280;45426;44.726;10.390;2023-05-17T11:02:30;100274.38;;;17.22;100.00
59608;BME280;45426;44.726;10.390;2023-05-17T11:04:56;100279.63;;;17.42;100.00
59608;BME280;45426;44.726;10.390;2023-05-17T11:07:29;100270.16;;;17.39;100.00
59608;BME280;45426;44.726;10.390;2023-05-17T11:12:35;100285.13;;;16.94;100.00
59608;BME280;45426;44.726;10.390;2023-05-17T11:15:05;100300.84;;;17.52;100.00
59608;BME280;45426;44.726;10.390;2023-05-17T11:25:14;100287.41;;;17.33;100.00
59608;BME280;45426;44.726;10.390;2023-05-17T11:27:45;100297.63;;;18.02;100.00
59608;BME280;45426;44.726;10.390;2023-05-17T11:30:16;100295.72;;;18.17;100.00
59608;BME280;45426;44.726;10.390;2023-05-17T11:32:49;100297.56;;;16.46;100.00
59608;BME280;45426;44.726;10.390;2023-05-17T11:35:22;100295.31;;;17.41;100.00
59608;BME280;45426;44.726;10.390;2023-05-17T11:37:50;100302.13;;;17.10;100.00
59608;BME280;45426;44.726;10.390;2023-05-17T11:40:23;100300.44;;;16.95;100.00
59608;BME280;45426;44.726;10.390;2023-05-17T11:42:49;100294.94;;;18.13;100.00
59608;BME280;45426;44.726;10.390;2023-05-17T11:45:45;100287.09;;;18.18;100.00
59608;BME280;45426;44.726;10.390;2023-05-17T11:48:12;100291.69;;;17.89;100.00
59608;BME280;45426;44.726;10.390;2023-05-17T11:50:39;100289.47;;;18.20;100.00
59608;BME280;45426;44.726;10.390;2023-05-17T11:53:07;100293.00;;;18.24;100.00
59608;BME280;45426;44.726;10.390;2023-05-17T11:55:39;100293.53;;;18.69;100.00
59608;BME280;45426;44.726;10.390;2023-05-17T11:58:06;100289.81;;;18.11;100.00
59608;BME280;45426;44.726;10.390;2023-05-17T12:00:33;100286.84;;;18.63;100.00
59608;BME280;45426;44.726;10.390;2023-05-17T12:03:19;100284.53;;;19.08;100.00
59608;BME280;45426;44.726;10.390;2023-05-17T12:05:47;100283.66;;;18.65;100.00
59608;BME280;45426;44.726;10.390;2023-05-17T12:08:17;100286.84;;;18.77;100.00
59608;BME280;45426;44.726;10.390;2023-05-17T12:10:46;100290.44;;;19.21;100.00
59608;BME280;45426;44.726;10.390;2023-05-17T12:13:11;100291.19;;;19.50;100.00
59608;BME280;45426;44.726;10.390;2023-05-17T12:15:38;100293.19;;;18.99;100.00
59608;BME280;45426;44.726;10.390;2023-05-17T12:18:04;100298.31;;;19.05;100.00
59608;BME280;45426;44.726;10.390;2023-05-17T12:20:29;100298.66;;;19.32;100.00
59608;BME280;45426;44.726;10.390;2023-05-17T12:22:57;100292.78;;;19.40;100.00
59608;BME280;45426;44.726;10.390;2023-05-17T12:25:23;100303.00;;;19.44;100.00
59608;BME280;45426;44.726;10.390;2023-05-17T12:28:11;100292.75;;;19.58;100.00
59608;BME280;45426;44.726;10.390;2023-05-17T12:30:37;100305.34;;;19.49;100.00
59608;BME280;45426;44.726;10.390;2023-05-17T12:33:03;100308.91;;;19.20;100.00
59608;BME280;45426;44.726;10.390;2023-05-17T12:35:30;100306.97;;;19.10;100.00
59608;BME280;45426;44.726;10.390;2023-05-17T12:37:56;100301.44;;;19.17;100.00
59608;BME280;45426;44.726;10.390;2023-05-17T12:40:21;100297.06;;;19.49;100.00
59608;BME280;45426;44.726;10.390;2023-05-17T12:42:50;100298.25;;;19.58;100.00
59608;BME280;45426;44.726;10.390;2023-05-17T12:45:16;100303.41;;;18.99;100.00
59608;BME280;45426;44.726;10.390;2023-05-17T12:47:42;100298.69;;;19.21;100.00
59608;BME280;45426;44.726;10.390;2023-05-17T12:50:08;100301.84;;;19.30;100.00